sensor_id;sensor_type;location;lat;lon;timestamp;P1;durP1;ratioP1;P2;durP2;ratioP2
75165;SDS011;63747;48.042;10.088;2023-10-31T00:02:42;1.00;;;0.70;;
75165;SDS011;63747;48.042;10.088;2023-10-31T00:05:43;0.77;;;0.60;;
75165;SDS011;63747;48.042;10.088;2023-10-31T00:08:43;1.50;;;0.80;;
75165;SDS011;63747;48.042;10.088;2023-10-31T00:11:44;0.67;;;0.60;;
75165;SDS011;63747;48.042;10.088;2023-10-31T00:14:45;1.10;;;0.80;;
75165;SDS011;63747;48.042;10.088;2023-10-31T00:17:45;1.10;;;0.80;;
75165;SDS011;63747;48.042;10.088;2023-10-31T00:20:46;2.00;;;0.73;;
75165;SDS011;63747;48.042;10.088;2023-10-31T00:23:48;0.77;;;0.75;;
75165;SDS011;63747;48.042;10.088;2023-10-31T00:26:49;0.63;;;0.60;;
75165;SDS011;63747;48.042;10.088;2023-10-31T00:29:49;2.53;;;0.83;;
75165;SDS011;63747;48.042;10.088;2023-10-31T00:32:50;0.70;;;0.60;;
75165;SDS011;63747;48.042;10.088;2023-10-31T00:35:51;0.60;;;0.60;;
75165;SDS011;63747;48.042;10.088;2023-10-31T00:38:51;2.20;;;0.77;;
75165;SDS011;63747;48.042;10.088;2023-10-31T00:41:52;0.87;;;0.80;;
75165;SDS011;63747;48.042;10.088;2023-10-31T00:44:53;0.83;;;0.60;;
75165;SDS011;63747;48.042;10.088;2023-10-31T00:47:53;1.33;;;0.80;;
75165;SDS011;63747;48.042;10.088;2023-10-31T00:50:54;1.80;;;0.70;;
75165;SDS011;63747;48.042;10.088;2023-10-31T00:53:55;1.10;;;0.87;;
75165;SDS011;63747;48.042;10.088;2023-10-31T00:56:55;0.67;;;0.67;;
75165;SDS011;63747;48.042;10.088;2023-10-31T00:59:56;0.53;;;0.53;;
75165;SDS011;63747;48.042;10.088;2023-10-31T01:02:57;1.20;;;0.53;;
75165;SDS011;63747;48.042;10.088;2023-10-31T01:05:57;1.53;;;0.80;;
75165;SDS011;63747;48.042;10.088;2023-10-31T01:08:58;0.70;;;0.70;;
75165;SDS011;63747;48.042;10.088;2023-10-31T01:11:59;0.63;;;0.50;;
75165;SDS011;63747;48.042;10.088;2023-10-31T01:14:59;0.60;;;0.50;;
75165;SDS011;63747;48.042;10.088;2023-10-31T01:18:02;0.43;;;0.40;;
75165;SDS011;63747;48.042;10.088;2023-10-31T01:21:03;0.50;;;0.50;;
75165;SDS011;63747;48.042;10.088;2023-10-31T01:24:04;1.43;;;0.60;;
75165;SDS011;63747;48.042;10.088;2023-10-31T01:27:05;1.90;;;0.60;;
75165;SDS011;63747;48.042;10.088;2023-10-31T01:30:06;0.57;;;0.57;;
75165;SDS011;63747;48.042;10.088;2023-10-31T01:33:07;0.40;;;0.40;;
75165;SDS011;63747;48.042;10.088;2023-10-31T01:36:08;0.67;;;0.40;;
75165;SDS011;63747;48.042;10.088;2023-10-31T01:39:10;1.88;;;0.60;;
75165;SDS011;63747;48.042;10.088;2023-10-31T01:42:14;0.60;;;0.60;;
75165;SDS011;63747;48.042;10.088;2023-10-31T01:45:15;0.40;;;0.40;;
75165;SDS011;63747;48.042;10.088;2023-10-31T01:48:16;1.40;;;0.57;;
75165;SDS011;63747;48.042;10.088;2023-10-31T01:51:17;1.33;;;0.50;;
75165;SDS011;63747;48.042;10.088;2023-10-31T01:54:17;0.43;;;0.40;;
75165;SDS011;63747;48.042;10.088;2023-10-31T01:57:18;0.60;;;0.50;;
75165;SDS011;63747;48.042;10.088;2023-10-31T02:00:21;0.65;;;0.60;;
75165;SDS011;63747;48.042;10.088;2023-10-31T02:03:22;1.58;;;0.70;;
75165;SDS011;63747;48.042;10.088;2023-10-31T02:06:23;1.07;;;0.50;;
75165;SDS011;63747;48.042;10.088;2023-10-31T02:09:24;1.73;;;0.50;;
75165;SDS011;63747;48.042;10.088;2023-10-31T02:12:30;0.63;;;0.30;;
75165;SDS011;63747;48.042;10.088;2023-10-31T02:15:35;1.40;;;0.40;;
75165;SDS011;63747;48.042;10.088;2023-10-31T02:18:35;0.73;;;0.40;;
75165;SDS011;63747;48.042;10.088;2023-10-31T02:21:39;0.60;;;0.40;;
75165;SDS011;63747;48.042;10.088;2023-10-31T02:24:40;1.35;;;0.40;;
75165;SDS011;63747;48.042;10.088;2023-10-31T02:27:41;0.83;;;0.30;;
75165;SDS011;63747;48.042;10.088;2023-10-31T02:30:42;0.93;;;0.40;;
75165;SDS011;63747;48.042;10.088;2023-10-31T02:33:42;1.10;;;0.40;;
75165;SDS011;63747;48.042;10.088;2023-10-31T02:36:43;3.17;;;0.60;;
75165;SDS011;63747;48.042;10.088;2023-10-31T02:39:44;1.07;;;0.40;;
75165;SDS011;63747;48.042;10.088;2023-10-31T02:42:44;1.83;;;0.70;;
75165;SDS011;63747;48.042;10.088;2023-10-31T02:45:45;1.23;;;0.50;;
75165;SDS011;63747;48.042;10.088;2023-10-31T02:48:46;0.30;;;0.30;;
75165;SDS011;63747;48.042;10.088;2023-10-31T02:51:47;0.70;;;0.40;;
75165;SDS011;63747;48.042;10.088;2023-10-31T02:54:47;1.33;;;0.40;;
75165;SDS011;63747;48.042;10.088;2023-10-31T02:57:48;0.68;;;0.40;;
75165;SDS011;63747;48.042;10.088;2023-10-31T03:00:49;1.00;;;0.40;;
75165;SDS011;63747;48.042;10.088;2023-10-31T03:03:50;0.60;;;0.53;;
75165;SDS011;63747;48.042;10.088;2023-10-31T03:06:50;1.97;;;0.60;;
75165;SDS011;63747;48.042;10.088;2023-10-31T03:09:51;1.00;;;0.60;;
75165;SDS011;63747;48.042;10.088;2023-10-31T03:12:52;1.02;;;0.60;;
75165;SDS011;63747;48.042;10.088;2023-10-31T03:15:52;0.77;;;0.60;;
75165;SDS011;63747;48.042;10.088;2023-10-31T03:18:53;3.00;;;0.53;;
75165;SDS011;63747;48.042;10.088;2023-10-31T03:21:54;1.83;;;0.60;;
75165;SDS011;63747;48.042;10.088;2023-10-31T03:24:54;2.57;;;0.70;;
75165;SDS011;63747;48.042;10.088;2023-10-31T03:27:55;1.63;;;0.60;;
75165;SDS011;63747;48.042;10.088;2023-10-31T03:30:56;0.80;;;0.68;;
75165;SDS011;63747;48.042;10.088;2023-10-31T03:33:57;2.70;;;0.80;;
75165;SDS011;63747;48.042;10.088;2023-10-31T03:36:58;2.83;;;0.90;;
75165;SDS011;63747;48.042;10.088;2023-10-31T03:39:58;1.93;;;0.77;;
75165;SDS011;63747;48.042;10.088;2023-10-31T03:42:59;1.50;;;0.70;;
75165;SDS011;63747;48.042;10.088;2023-10-31T03:46:00;2.05;;;0.60;;
75165;SDS011;63747;48.042;10.088;2023-10-31T03:49:01;1.58;;;0.60;;
75165;SDS011;63747;48.042;10.088;2023-10-31T03:52:02;2.05;;;0.60;;
75165;SDS011;63747;48.042;10.088;2023-10-31T03:55:02;1.57;;;0.60;;
75165;SDS011;63747;48.042;10.088;2023-10-31T03:58:03;2.22;;;0.57;;
75165;SDS011;63747;48.042;10.088;2023-10-31T04:01:05;2.67;;;0.50;;
75165;SDS011;63747;48.042;10.088;2023-10-31T04:04:06;2.43;;;0.70;;
75165;SDS011;63747;48.042;10.088;2023-10-31T04:07:07;3.03;;;0.43;;
75165;SDS011;63747;48.042;10.088;2023-10-31T04:10:08;1.02;;;0.60;;
75165;SDS011;63747;48.042;10.088;2023-10-31T04:13:08;2.65;;;0.68;;
75165;SDS011;63747;48.042;10.088;2023-10-31T04:16:09;2.83;;;0.50;;
75165;SDS011;63747;48.042;10.088;2023-10-31T04:19:10;2.40;;;0.50;;
75165;SDS011;63747;48.042;10.088;2023-10-31T04:22:11;3.00;;;0.60;;
75165;SDS011;63747;48.042;10.088;2023-10-31T04:25:11;3.00;;;0.60;;
75165;SDS011;63747;48.042;10.088;2023-10-31T04:28:12;6.03;;;0.60;;
75165;SDS011;63747;48.042;10.088;2023-10-31T04:31:14;4.78;;;0.77;;
75165;SDS011;63747;48.042;10.088;2023-10-31T04:34:15;3.10;;;0.77;;
75165;SDS011;63747;48.042;10.088;2023-10-31T04:37:16;3.17;;;0.77;;
75165;SDS011;63747;48.042;10.088;2023-10-31T04:40:16;3.10;;;0.70;;
75165;SDS011;63747;48.042;10.088;2023-10-31T04:43:17;2.73;;;0.70;;
75165;SDS011;63747;48.042;10.088;2023-10-31T04:46:18;2.90;;;0.80;;
75165;SDS011;63747;48.042;10.088;2023-10-31T04:49:18;1.23;;;0.70;;
75165;SDS011;63747;48.042;10.088;2023-10-31T04:55:22;0.93;;;0.70;;
75165;SDS011;63747;48.042;10.088;2023-10-31T04:58:23;1.90;;;0.80;;
75165;SDS011;63747;48.042;10.088;2023-10-31T05:01:24;1.50;;;0.57;;
75165;SDS011;63747;48.042;10.088;2023-10-31T05:04:24;1.47;;;0.67;;
75165;SDS011;63747;48.042;10.088;2023-10-31T05:07:25;2.03;;;0.70;;
75165;SDS011;63747;48.042;10.088;2023-10-31T05:10:26;1.43;;;0.57;;
75165;SDS011;63747;48.042;10.088;2023-10-31T05:13:27;1.17;;;0.60;;
75165;SDS011;63747;48.042;10.088;2023-10-31T05:16:28;2.40;;;0.70;;
75165;SDS011;63747;48.042;10.088;2023-10-31T05:19:29;1.33;;;0.50;;
75165;SDS011;63747;48.042;10.088;2023-10-31T05:25:30;2.45;;;1.00;;
75165;SDS011;63747;48.042;10.088;2023-10-31T05:28:31;1.93;;;0.70;;
75165;SDS011;63747;48.042;10.088;2023-10-31T05:31:32;2.80;;;0.90;;
75165;SDS011;63747;48.042;10.088;2023-10-31T05:34:32;1.10;;;0.80;;
75165;SDS011;63747;48.042;10.088;2023-10-31T05:37:33;1.50;;;0.73;;
75165;SDS011;63747;48.042;10.088;2023-10-31T05:40:34;3.83;;;1.10;;
75165;SDS011;63747;48.042;10.088;2023-10-31T05:43:37;3.15;;;0.80;;
75165;SDS011;63747;48.042;10.088;2023-10-31T05:46:38;1.77;;;1.00;;
75165;SDS011;63747;48.042;10.088;2023-10-31T05:49:41;1.65;;;0.60;;
75165;SDS011;63747;48.042;10.088;2023-10-31T05:52:43;2.00;;;0.95;;
75165;SDS011;63747;48.042;10.088;2023-10-31T05:55:44;1.97;;;0.70;;
75165;SDS011;63747;48.042;10.088;2023-10-31T05:58:45;2.20;;;0.70;;
75165;SDS011;63747;48.042;10.088;2023-10-31T06:01:46;1.67;;;0.77;;
75165;SDS011;63747;48.042;10.088;2023-10-31T06:04:46;2.43;;;0.70;;
75165;SDS011;63747;48.042;10.088;2023-10-31T06:07:47;2.23;;;0.60;;
75165;SDS011;63747;48.042;10.088;2023-10-31T06:10:48;2.83;;;0.67;;
75165;SDS011;63747;48.042;10.088;2023-10-31T06:13:48;2.73;;;0.77;;
75165;SDS011;63747;48.042;10.088;2023-10-31T06:16:49;2.57;;;0.77;;
75165;SDS011;63747;48.042;10.088;2023-10-31T06:19:50;2.77;;;0.87;;
75165;SDS011;63747;48.042;10.088;2023-10-31T06:22:50;1.60;;;0.70;;
75165;SDS011;63747;48.042;10.088;2023-10-31T06:25:51;1.20;;;0.60;;
75165;SDS011;63747;48.042;10.088;2023-10-31T06:28:52;2.03;;;1.00;;
75165;SDS011;63747;48.042;10.088;2023-10-31T06:31:52;3.27;;;0.87;;
75165;SDS011;63747;48.042;10.088;2023-10-31T06:34:53;3.00;;;0.60;;
75165;SDS011;63747;48.042;10.088;2023-10-31T06:37:54;2.00;;;0.50;;
75165;SDS011;63747;48.042;10.088;2023-10-31T06:40:59;2.90;;;0.73;;
75165;SDS011;63747;48.042;10.088;2023-10-31T06:44:00;3.60;;;0.80;;
75165;SDS011;63747;48.042;10.088;2023-10-31T06:47:01;2.63;;;0.60;;
75165;SDS011;63747;48.042;10.088;2023-10-31T06:50:01;4.30;;;1.00;;
75165;SDS011;63747;48.042;10.088;2023-10-31T06:53:02;3.45;;;0.90;;
75165;SDS011;63747;48.042;10.088;2023-10-31T06:56:03;4.47;;;0.90;;
75165;SDS011;63747;48.042;10.088;2023-10-31T06:59:04;3.83;;;0.93;;
75165;SDS011;63747;48.042;10.088;2023-10-31T07:02:05;5.75;;;1.00;;
75165;SDS011;63747;48.042;10.088;2023-10-31T07:05:06;5.13;;;1.05;;
75165;SDS011;63747;48.042;10.088;2023-10-31T07:08:07;3.03;;;0.80;;
75165;SDS011;63747;48.042;10.088;2023-10-31T07:11:08;2.20;;;0.88;;
75165;SDS011;63747;48.042;10.088;2023-10-31T07:14:09;2.70;;;0.87;;
75165;SDS011;63747;48.042;10.088;2023-10-31T07:17:09;2.50;;;0.80;;
75165;SDS011;63747;48.042;10.088;2023-10-31T07:20:10;5.57;;;1.03;;
75165;SDS011;63747;48.042;10.088;2023-10-31T07:23:11;6.53;;;1.40;;
75165;SDS011;63747;48.042;10.088;2023-10-31T07:26:11;2.63;;;0.90;;
75165;SDS011;63747;48.042;10.088;2023-10-31T07:29:12;3.63;;;1.10;;
75165;SDS011;63747;48.042;10.088;2023-10-31T07:32:13;2.27;;;0.80;;
75165;SDS011;63747;48.042;10.088;2023-10-31T07:35:14;5.40;;;1.20;;
75165;SDS011;63747;48.042;10.088;2023-10-31T07:38:14;4.33;;;1.50;;
75165;SDS011;63747;48.042;10.088;2023-10-31T07:41:15;4.07;;;2.10;;
75165;SDS011;63747;48.042;10.088;2023-10-31T07:44:16;3.60;;;1.03;;
75165;SDS011;63747;48.042;10.088;2023-10-31T07:47:16;4.63;;;1.17;;
75165;SDS011;63747;48.042;10.088;2023-10-31T07:50:17;4.50;;;0.80;;
75165;SDS011;63747;48.042;10.088;2023-10-31T07:53:18;4.73;;;1.13;;
75165;SDS011;63747;48.042;10.088;2023-10-31T07:56:19;3.20;;;0.70;;
75165;SDS011;63747;48.042;10.088;2023-10-31T07:59:23;4.22;;;1.00;;
75165;SDS011;63747;48.042;10.088;2023-10-31T08:02:23;4.53;;;1.00;;
75165;SDS011;63747;48.042;10.088;2023-10-31T08:05:24;3.47;;;0.70;;
75165;SDS011;63747;48.042;10.088;2023-10-31T08:08:25;3.73;;;0.80;;
75165;SDS011;63747;48.042;10.088;2023-10-31T08:11:25;3.97;;;1.00;;
75165;SDS011;63747;48.042;10.088;2023-10-31T08:14:26;5.77;;;1.03;;
75165;SDS011;63747;48.042;10.088;2023-10-31T08:17:27;2.83;;;0.90;;
75165;SDS011;63747;48.042;10.088;2023-10-31T08:20:27;6.30;;;0.73;;
75165;SDS011;63747;48.042;10.088;2023-10-31T08:23:33;2.50;;;0.93;;
75165;SDS011;63747;48.042;10.088;2023-10-31T08:26:35;3.05;;;0.70;;
75165;SDS011;63747;48.042;10.088;2023-10-31T08:29:35;2.50;;;0.70;;
75165;SDS011;63747;48.042;10.088;2023-10-31T08:32:36;3.07;;;0.80;;
75165;SDS011;63747;48.042;10.088;2023-10-31T08:35:37;4.30;;;0.70;;
75165;SDS011;63747;48.042;10.088;2023-10-31T08:38:37;2.70;;;0.83;;
75165;SDS011;63747;48.042;10.088;2023-10-31T08:41:49;2.93;;;0.70;;
75165;SDS011;63747;48.042;10.088;2023-10-31T08:44:51;2.30;;;0.52;;
75165;SDS011;63747;48.042;10.088;2023-10-31T08:47:51;3.50;;;0.80;;
75165;SDS011;63747;48.042;10.088;2023-10-31T08:50:52;3.33;;;0.60;;
75165;SDS011;63747;48.042;10.088;2023-10-31T08:53:53;2.80;;;0.80;;
75165;SDS011;63747;48.042;10.088;2023-10-31T08:56:54;3.63;;;0.77;;
75165;SDS011;63747;48.042;10.088;2023-10-31T08:59:54;2.00;;;0.60;;
75165;SDS011;63747;48.042;10.088;2023-10-31T09:02:55;5.03;;;0.87;;
75165;SDS011;63747;48.042;10.088;2023-10-31T09:05:56;2.83;;;0.73;;
75165;SDS011;63747;48.042;10.088;2023-10-31T09:08:56;3.13;;;0.90;;
75165;SDS011;63747;48.042;10.088;2023-10-31T09:11:57;1.40;;;0.60;;
75165;SDS011;63747;48.042;10.088;2023-10-31T09:14:58;6.03;;;1.03;;
75165;SDS011;63747;48.042;10.088;2023-10-31T09:17:58;3.20;;;0.70;;
75165;SDS011;63747;48.042;10.088;2023-10-31T09:20:59;2.40;;;0.80;;
75165;SDS011;63747;48.042;10.088;2023-10-31T09:24:00;8.27;;;0.80;;
75165;SDS011;63747;48.042;10.088;2023-10-31T09:27:01;4.70;;;0.90;;
75165;SDS011;63747;48.042;10.088;2023-10-31T09:30:02;4.37;;;0.80;;
75165;SDS011;63747;48.042;10.088;2023-10-31T09:33:03;3.28;;;0.73;;
75165;SDS011;63747;48.042;10.088;2023-10-31T09:36:04;3.27;;;0.93;;
75165;SDS011;63747;48.042;10.088;2023-10-31T09:39:05;2.15;;;0.68;;
75165;SDS011;63747;48.042;10.088;2023-10-31T09:42:06;3.13;;;0.80;;
75165;SDS011;63747;48.042;10.088;2023-10-31T09:48:08;2.50;;;0.60;;
75165;SDS011;63747;48.042;10.088;2023-10-31T09:51:09;3.80;;;0.88;;
75165;SDS011;63747;48.042;10.088;2023-10-31T09:54:14;2.95;;;0.70;;
75165;SDS011;63747;48.042;10.088;2023-10-31T09:57:17;2.40;;;0.75;;
75165;SDS011;63747;48.042;10.088;2023-10-31T10:00:18;2.97;;;0.70;;
75165;SDS011;63747;48.042;10.088;2023-10-31T10:03:18;1.67;;;0.60;;
75165;SDS011;63747;48.042;10.088;2023-10-31T10:06:20;3.70;;;0.85;;
75165;SDS011;63747;48.042;10.088;2023-10-31T10:09:23;2.50;;;0.80;;
75165;SDS011;63747;48.042;10.088;2023-10-31T10:12:24;2.50;;;0.93;;
75165;SDS011;63747;48.042;10.088;2023-10-31T10:15:24;2.27;;;1.00;;
75165;SDS011;63747;48.042;10.088;2023-10-31T10:18:27;1.98;;;0.68;;
75165;SDS011;63747;48.042;10.088;2023-10-31T10:21:29;2.42;;;0.80;;
75165;SDS011;63747;48.042;10.088;2023-10-31T10:24:47;1.55;;;0.63;;
75165;SDS011;63747;48.042;10.088;2023-10-31T10:27:48;3.60;;;0.60;;
75165;SDS011;63747;48.042;10.088;2023-10-31T10:30:48;1.93;;;0.30;;
75165;SDS011;63747;48.042;10.088;2023-10-31T10:33:49;2.88;;;0.80;;
75165;SDS011;63747;48.042;10.088;2023-10-31T10:36:50;1.50;;;0.40;;
75165;SDS011;63747;48.042;10.088;2023-10-31T10:39:51;0.90;;;0.35;;
75165;SDS011;63747;48.042;10.088;2023-10-31T10:42:56;1.50;;;0.40;;
75165;SDS011;63747;48.042;10.088;2023-10-31T10:46:01;2.67;;;0.50;;
75165;SDS011;63747;48.042;10.088;2023-10-31T10:49:05;0.93;;;0.30;;
75165;SDS011;63747;48.042;10.088;2023-10-31T10:52:23;1.13;;;0.40;;
75165;SDS011;63747;48.042;10.088;2023-10-31T11:01:34;2.67;;;0.40;;
75165;SDS011;63747;48.042;10.088;2023-10-31T11:04:38;1.70;;;0.60;;
75165;SDS011;63747;48.042;10.088;2023-10-31T11:07:42;2.83;;;0.50;;
75165;SDS011;63747;48.042;10.088;2023-10-31T11:10:43;1.17;;;0.57;;
75165;SDS011;63747;48.042;10.088;2023-10-31T11:13:46;2.92;;;0.60;;
75165;SDS011;63747;48.042;10.088;2023-10-31T11:16:54;7.18;;;0.80;;
75165;SDS011;63747;48.042;10.088;2023-10-31T11:19:59;2.90;;;0.77;;
75165;SDS011;63747;48.042;10.088;2023-10-31T11:23:00;3.72;;;0.70;;
75165;SDS011;63747;48.042;10.088;2023-10-31T11:26:09;1.52;;;0.38;;
75165;SDS011;63747;48.042;10.088;2023-10-31T11:29:10;2.03;;;0.70;;
75165;SDS011;63747;48.042;10.088;2023-10-31T11:32:11;1.08;;;0.57;;
75165;SDS011;63747;48.042;10.088;2023-10-31T11:35:12;2.33;;;0.60;;
75165;SDS011;63747;48.042;10.088;2023-10-31T11:38:13;2.47;;;0.63;;
75165;SDS011;63747;48.042;10.088;2023-10-31T11:41:14;1.33;;;0.50;;
75165;SDS011;63747;48.042;10.088;2023-10-31T11:44:15;3.10;;;0.63;;
75165;SDS011;63747;48.042;10.088;2023-10-31T11:50:17;2.53;;;0.60;;
75165;SDS011;63747;48.042;10.088;2023-10-31T11:56:22;2.67;;;0.60;;
75165;SDS011;63747;48.042;10.088;2023-10-31T11:59:23;3.33;;;1.10;;
75165;SDS011;63747;48.042;10.088;2023-10-31T12:02:23;8.60;;;3.85;;
75165;SDS011;63747;48.042;10.088;2023-10-31T12:05:25;5.32;;;2.47;;
75165;SDS011;63747;48.042;10.088;2023-10-31T12:11:31;6.47;;;2.70;;
75165;SDS011;63747;48.042;10.088;2023-10-31T12:14:32;6.60;;;2.78;;
75165;SDS011;63747;48.042;10.088;2023-10-31T12:17:32;3.70;;;1.95;;
75165;SDS011;63747;48.042;10.088;2023-10-31T12:20:34;2.50;;;1.40;;
75165;SDS011;63747;48.042;10.088;2023-10-31T12:23:47;2.13;;;1.00;;
75165;SDS011;63747;48.042;10.088;2023-10-31T12:26:50;4.20;;;1.40;;
75165;SDS011;63747;48.042;10.088;2023-10-31T12:33:01;1.63;;;0.70;;
75165;SDS011;63747;48.042;10.088;2023-10-31T12:36:02;2.78;;;0.90;;
75165;SDS011;63747;48.042;10.088;2023-10-31T12:39:04;3.45;;;0.98;;
75165;SDS011;63747;48.042;10.088;2023-10-31T12:42:07;4.57;;;1.00;;
75165;SDS011;63747;48.042;10.088;2023-10-31T12:45:08;3.22;;;0.80;;
75165;SDS011;63747;48.042;10.088;2023-10-31T12:48:10;4.68;;;1.13;;
75165;SDS011;63747;48.042;10.088;2023-10-31T12:51:12;2.53;;;1.02;;
75165;SDS011;63747;48.042;10.088;2023-10-31T12:54:13;2.42;;;1.05;;
75165;SDS011;63747;48.042;10.088;2023-10-31T12:57:28;3.65;;;1.20;;
75165;SDS011;63747;48.042;10.088;2023-10-31T13:00:30;3.30;;;1.10;;
75165;SDS011;63747;48.042;10.088;2023-10-31T13:03:32;3.35;;;1.00;;
75165;SDS011;63747;48.042;10.088;2023-10-31T13:06:32;5.88;;;0.77;;
75165;SDS011;63747;48.042;10.088;2023-10-31T13:09:34;2.97;;;1.00;;
75165;SDS011;63747;48.042;10.088;2023-10-31T13:12:38;3.53;;;1.00;;
75165;SDS011;63747;48.042;10.088;2023-10-31T13:15:39;4.35;;;1.10;;
75165;SDS011;63747;48.042;10.088;2023-10-31T13:18:39;3.35;;;0.90;;
75165;SDS011;63747;48.042;10.088;2023-10-31T13:21:40;2.97;;;0.85;;
75165;SDS011;63747;48.042;10.088;2023-10-31T13:24:41;4.80;;;1.25;;
75165;SDS011;63747;48.042;10.088;2023-10-31T13:27:43;2.30;;;0.82;;
75165;SDS011;63747;48.042;10.088;2023-10-31T13:30:45;2.03;;;0.82;;
75165;SDS011;63747;48.042;10.088;2023-10-31T13:33:48;2.70;;;1.10;;
75165;SDS011;63747;48.042;10.088;2023-10-31T13:36:49;1.98;;;0.93;;
75165;SDS011;63747;48.042;10.088;2023-10-31T13:39:49;3.00;;;1.30;;
75165;SDS011;63747;48.042;10.088;2023-10-31T13:42:50;3.37;;;1.03;;
75165;SDS011;63747;48.042;10.088;2023-10-31T13:45:51;2.60;;;1.10;;
75165;SDS011;63747;48.042;10.088;2023-10-31T13:48:51;3.40;;;1.00;;
75165;SDS011;63747;48.042;10.088;2023-10-31T13:51:52;3.33;;;1.02;;
75165;SDS011;63747;48.042;10.088;2023-10-31T13:54:53;5.40;;;0.90;;
75165;SDS011;63747;48.042;10.088;2023-10-31T13:57:53;2.45;;;0.80;;
75165;SDS011;63747;48.042;10.088;2023-10-31T14:00:54;2.53;;;1.00;;
75165;SDS011;63747;48.042;10.088;2023-10-31T14:03:55;3.53;;;0.90;;
75165;SDS011;63747;48.042;10.088;2023-10-31T14:06:56;3.10;;;0.88;;
75165;SDS011;63747;48.042;10.088;2023-10-31T14:09:57;2.60;;;1.00;;
75165;SDS011;63747;48.042;10.088;2023-10-31T14:15:59;3.47;;;0.80;;
75165;SDS011;63747;48.042;10.088;2023-10-31T14:19:00;1.77;;;0.70;;
75165;SDS011;63747;48.042;10.088;2023-10-31T14:22:02;2.08;;;0.65;;
75165;SDS011;63747;48.042;10.088;2023-10-31T14:25:03;2.47;;;0.82;;
75165;SDS011;63747;48.042;10.088;2023-10-31T14:28:04;3.38;;;0.65;;
75165;SDS011;63747;48.042;10.088;2023-10-31T14:31:06;1.45;;;0.65;;
75165;SDS011;63747;48.042;10.088;2023-10-31T14:34:09;2.80;;;1.50;;
75165;SDS011;63747;48.042;10.088;2023-10-31T14:37:10;2.33;;;1.15;;
75165;SDS011;63747;48.042;10.088;2023-10-31T14:40:11;1.98;;;0.88;;
75165;SDS011;63747;48.042;10.088;2023-10-31T14:43:11;1.15;;;0.50;;
75165;SDS011;63747;48.042;10.088;2023-10-31T14:46:18;1.48;;;0.65;;
75165;SDS011;63747;48.042;10.088;2023-10-31T14:49:21;1.85;;;0.82;;
75165;SDS011;63747;48.042;10.088;2023-10-31T14:52:22;4.00;;;0.82;;
75165;SDS011;63747;48.042;10.088;2023-10-31T14:55:23;1.83;;;0.77;;
75165;SDS011;63747;48.042;10.088;2023-10-31T14:58:23;1.53;;;0.60;;
75165;SDS011;63747;48.042;10.088;2023-10-31T15:01:24;3.20;;;0.87;;
75165;SDS011;63747;48.042;10.088;2023-10-31T15:04:25;2.17;;;1.40;;
75165;SDS011;63747;48.042;10.088;2023-10-31T15:07:26;2.53;;;1.20;;
75165;SDS011;63747;48.042;10.088;2023-10-31T15:10:27;2.47;;;0.97;;
75165;SDS011;63747;48.042;10.088;2023-10-31T15:13:28;3.50;;;1.77;;
75165;SDS011;63747;48.042;10.088;2023-10-31T15:16:29;1.65;;;1.00;;
75165;SDS011;63747;48.042;10.088;2023-10-31T15:19:30;1.98;;;0.95;;
75165;SDS011;63747;48.042;10.088;2023-10-31T15:22:30;2.10;;;0.77;;
75165;SDS011;63747;48.042;10.088;2023-10-31T15:25:31;2.27;;;0.80;;
75165;SDS011;63747;48.042;10.088;2023-10-31T15:28:32;3.30;;;0.80;;
75165;SDS011;63747;48.042;10.088;2023-10-31T15:31:32;1.77;;;0.90;;
75165;SDS011;63747;48.042;10.088;2023-10-31T15:34:33;2.95;;;0.70;;
75165;SDS011;63747;48.042;10.088;2023-10-31T15:37:36;2.42;;;0.90;;
75165;SDS011;63747;48.042;10.088;2023-10-31T15:40:37;3.13;;;1.20;;
75165;SDS011;63747;48.042;10.088;2023-10-31T15:43:38;2.20;;;0.57;;
75165;SDS011;63747;48.042;10.088;2023-10-31T15:46:38;5.68;;;1.02;;
75165;SDS011;63747;48.042;10.088;2023-10-31T15:49:39;3.80;;;0.80;;
75165;SDS011;63747;48.042;10.088;2023-10-31T15:52:40;2.15;;;0.70;;
75165;SDS011;63747;48.042;10.088;2023-10-31T15:55:41;4.82;;;1.05;;
75165;SDS011;63747;48.042;10.088;2023-10-31T15:58:44;2.33;;;1.20;;
75165;SDS011;63747;48.042;10.088;2023-10-31T16:01:45;1.20;;;0.83;;
75165;SDS011;63747;48.042;10.088;2023-10-31T16:04:46;2.73;;;1.30;;
75165;SDS011;63747;48.042;10.088;2023-10-31T16:07:46;2.70;;;1.20;;
75165;SDS011;63747;48.042;10.088;2023-10-31T16:10:47;3.58;;;1.70;;
75165;SDS011;63747;48.042;10.088;2023-10-31T16:13:51;2.75;;;1.50;;
75165;SDS011;63747;48.042;10.088;2023-10-31T16:16:52;3.80;;;1.60;;
75165;SDS011;63747;48.042;10.088;2023-10-31T16:19:53;9.33;;;4.80;;
75165;SDS011;63747;48.042;10.088;2023-10-31T16:22:53;3.67;;;2.00;;
75165;SDS011;63747;48.042;10.088;2023-10-31T16:25:54;4.07;;;1.70;;
75165;SDS011;63747;48.042;10.088;2023-10-31T16:28:55;2.30;;;1.10;;
75165;SDS011;63747;48.042;10.088;2023-10-31T16:31:55;1.17;;;1.07;;
75165;SDS011;63747;48.042;10.088;2023-10-31T16:34:56;3.27;;;1.47;;
75165;SDS011;63747;48.042;10.088;2023-10-31T16:37:57;1.40;;;0.93;;
75165;SDS011;63747;48.042;10.088;2023-10-31T16:41:00;1.40;;;1.03;;
75165;SDS011;63747;48.042;10.088;2023-10-31T16:44:05;1.80;;;1.38;;
75165;SDS011;63747;48.042;10.088;2023-10-31T16:47:05;1.45;;;1.10;;
75165;SDS011;63747;48.042;10.088;2023-10-31T16:50:06;2.73;;;1.20;;
75165;SDS011;63747;48.042;10.088;2023-10-31T16:53:07;2.83;;;1.23;;
75165;SDS011;63747;48.042;10.088;2023-10-31T16:56:08;2.83;;;1.40;;
75165;SDS011;63747;48.042;10.088;2023-10-31T16:59:09;0.70;;;0.70;;
75165;SDS011;63747;48.042;10.088;2023-10-31T17:02:09;5.43;;;1.50;;
75165;SDS011;63747;48.042;10.088;2023-10-31T17:05:10;1.20;;;1.10;;
75165;SDS011;63747;48.042;10.088;2023-10-31T17:08:11;2.57;;;1.67;;
75165;SDS011;63747;48.042;10.088;2023-10-31T17:11:11;1.93;;;1.37;;
75165;SDS011;63747;48.042;10.088;2023-10-31T17:14:12;2.73;;;1.60;;
75165;SDS011;63747;48.042;10.088;2023-10-31T17:17:13;2.47;;;1.00;;
75165;SDS011;63747;48.042;10.088;2023-10-31T17:20:13;1.23;;;1.13;;
75165;SDS011;63747;48.042;10.088;2023-10-31T17:23:14;2.23;;;2.03;;
75165;SDS011;63747;48.042;10.088;2023-10-31T17:26:15;3.00;;;2.80;;
75165;SDS011;63747;48.042;10.088;2023-10-31T17:29:16;2.53;;;2.17;;
75165;SDS011;63747;48.042;10.088;2023-10-31T17:32:16;4.20;;;2.20;;
75165;SDS011;63747;48.042;10.088;2023-10-31T17:35:17;3.23;;;1.87;;
75165;SDS011;63747;48.042;10.088;2023-10-31T17:38:17;2.90;;;2.60;;
75165;SDS011;63747;48.042;10.088;2023-10-31T17:41:22;2.83;;;2.53;;
75165;SDS011;63747;48.042;10.088;2023-10-31T17:44:22;2.87;;;1.50;;
75165;SDS011;63747;48.042;10.088;2023-10-31T17:47:24;3.63;;;3.33;;
75165;SDS011;63747;48.042;10.088;2023-10-31T17:50:25;6.35;;;5.75;;
75165;SDS011;63747;48.042;10.088;2023-10-31T17:53:26;3.83;;;3.53;;
75165;SDS011;63747;48.042;10.088;2023-10-31T17:56:27;1.57;;;1.30;;
75165;SDS011;63747;48.042;10.088;2023-10-31T17:59:27;1.93;;;1.40;;
75165;SDS011;63747;48.042;10.088;2023-10-31T18:02:28;1.88;;;1.70;;
75165;SDS011;63747;48.042;10.088;2023-10-31T18:05:29;1.30;;;1.20;;
75165;SDS011;63747;48.042;10.088;2023-10-31T18:08:29;1.93;;;1.10;;
75165;SDS011;63747;48.042;10.088;2023-10-31T18:11:30;1.10;;;0.80;;
75165;SDS011;63747;48.042;10.088;2023-10-31T18:14:31;1.40;;;1.10;;
75165;SDS011;63747;48.042;10.088;2023-10-31T18:17:32;0.80;;;0.53;;
75165;SDS011;63747;48.042;10.088;2023-10-31T18:20:33;2.55;;;1.00;;
75165;SDS011;63747;48.042;10.088;2023-10-31T18:23:34;1.15;;;0.93;;
75165;SDS011;63747;48.042;10.088;2023-10-31T18:26:38;1.13;;;1.00;;